createdAt,value
2023-01-22T00:00:31.617Z,2.17
2023-01-22T00:05:35.989Z,1.55
2023-01-22T00:10:41.287Z,2.70
2023-01-22T00:15:44.992Z,4.77
2023-01-22T00:20:49.215Z,2.63
2023-01-22T00:26:02.080Z,4.70
2023-01-22T00:31:07.432Z,3.60
2023-01-22T00:36:13.261Z,1.87
2023-01-22T00:41:21.000Z,3.95
2023-01-22T00:46:24.731Z,3.20
2023-01-22T00:51:28.406Z,3.10
2023-01-22T00:56:33.698Z,1.92
2023-01-22T01:01:37.996Z,5.33
2023-01-22T01:06:41.814Z,2.55
2023-01-22T01:11:47.105Z,5.10
2023-01-22T01:16:51.681Z,1.87
2023-01-22T01:21:55.326Z,3.22
2023-01-22T01:27:00.623Z,3.45
2023-01-22T01:32:04.499Z,3.70
2023-01-22T01:37:08.119Z,2.75
2023-01-22T01:42:13.400Z,4.53
2023-01-22T01:47:31.007Z,2.40
2023-01-22T01:52:34.633Z,3.10
2023-01-22T01:57:40.986Z,2.60
2023-01-22T02:02:44.901Z,6.18
2023-01-22T02:07:48.843Z,2.78
2023-01-22T02:12:56.643Z,3.72
2023-01-22T02:18:00.371Z,3.17
2023-01-22T02:23:06.059Z,2.35
2023-01-22T02:28:09.662Z,3.10
2023-01-22T02:33:13.310Z,2.90
2023-01-22T02:38:18.558Z,2.13
2023-01-22T02:43:22.197Z,4.90
2023-01-22T02:48:25.831Z,2.33
2023-01-22T02:53:31.152Z,2.72
2023-01-22T02:58:35.721Z,2.55
2023-01-22T03:03:39.333Z,5.18
2023-01-22T03:08:44.893Z,3.40
2023-01-22T03:13:48.534Z,2.93
2023-01-22T03:18:52.162Z,3.95
2023-01-22T03:23:57.416Z,3.85
2023-01-22T03:29:01.052Z,3.50
2023-01-22T03:34:04.729Z,5.40
2023-01-22T03:39:10.252Z,2.67
2023-01-22T03:44:13.863Z,3.50
2023-01-22T03:49:17.667Z,2.75
2023-01-22T03:54:23.066Z,3.65
2023-01-22T03:59:26.775Z,2.20
2023-01-22T04:04:30.402Z,5.97
2023-01-22T04:09:35.723Z,3.75
2023-01-22T04:14:39.325Z,3.67
2023-01-22T04:19:42.909Z,5.53
2023-01-22T04:24:48.171Z,6.03
2023-01-22T04:29:51.826Z,7.63
2023-01-22T04:34:55.452Z,5.65
2023-01-22T04:40:00.782Z,6.18
2023-01-22T04:45:04.700Z,6.30
2023-01-22T04:50:08.970Z,6.20
2023-01-22T04:55:14.274Z,5.72
2023-01-22T05:00:19.731Z,7.93
2023-01-22T05:05:23.489Z,8.27
2023-01-22T05:10:28.838Z,4.50
2023-01-22T05:15:32.549Z,8.05
2023-01-22T05:20:36.160Z,6.10
2023-01-22T05:25:41.414Z,7.82
2023-01-22T05:30:45.114Z,9.32
2023-01-22T05:35:57.368Z,8.40
2023-01-22T05:41:02.697Z,8.18
2023-01-22T05:46:06.869Z,6.75
2023-01-22T05:51:11.819Z,7.60
2023-01-22T05:56:17.423Z,7.50
2023-01-22T06:01:21.126Z,9.10
2023-01-22T06:06:24.811Z,8.30
2023-01-22T06:11:30.145Z,8.32
2023-01-22T06:16:34.249Z,6.43
2023-01-22T06:21:37.911Z,7.80
2023-01-22T06:26:48.633Z,10.98
2023-01-22T06:31:52.325Z,7.65
2023-01-22T06:36:56.183Z,8.18
2023-01-22T06:42:01.537Z,6.93
2023-01-22T06:47:05.228Z,8.23
2023-01-22T06:52:08.877Z,7.95
2023-01-22T06:57:14.191Z,9.63
2023-01-22T07:02:19.090Z,8.77
2023-01-22T07:07:25.978Z,8.15
2023-01-22T07:12:31.314Z,7.85
2023-01-22T07:17:35.047Z,6.47
2023-01-22T07:22:39.079Z,4.82
2023-01-22T07:27:44.388Z,7.38
2023-01-22T07:32:48.022Z,8.18
2023-01-22T07:37:55.596Z,5.22
2023-01-22T07:43:00.879Z,10.68
2023-01-22T07:48:04.739Z,6.60
2023-01-22T07:53:08.602Z,6.78
2023-01-22T07:58:13.968Z,8.73
2023-01-22T08:03:17.662Z,5.93
2023-01-22T08:08:21.462Z,9.35
2023-01-22T08:13:26.843Z,7.32
2023-01-22T08:18:33.681Z,10.07
2023-01-22T08:23:37.340Z,10.43
2023-01-22T08:28:42.663Z,8.23
2023-01-22T08:33:48.032Z,7.57
2023-01-22T08:38:51.693Z,7.05
2023-01-22T08:43:56.995Z,12.23
2023-01-22T08:49:00.660Z,11.27
2023-01-22T08:54:04.326Z,9.45
2023-01-22T08:59:09.574Z,8.75
2023-01-22T09:04:13.228Z,10.55
2023-01-22T09:09:16.942Z,15.27
2023-01-22T09:14:22.206Z,10.07
2023-01-22T09:19:25.806Z,12.13
2023-01-22T09:24:29.414Z,14.95
2023-01-22T09:29:34.704Z,15.38
2023-01-22T09:34:38.321Z,9.32
2023-01-22T09:39:42.136Z,13.95
2023-01-22T09:44:51.793Z,16.80
2023-01-22T09:49:58.281Z,13.93
2023-01-22T10:00:18.051Z,16.05
2023-01-22T10:05:32.282Z,12.40
2023-01-22T10:10:36.218Z,13.27
2023-01-22T10:15:41.579Z,13.02
2023-01-22T10:20:45.462Z,12.15
2023-01-22T10:25:53.719Z,15.05
2023-01-22T10:31:00.028Z,11.80
2023-01-22T10:36:05.818Z,12.45
2023-01-22T10:41:18.786Z,8.30
2023-01-22T10:46:25.661Z,10.30
2023-01-22T10:51:31.715Z,15.50
2023-01-22T10:56:37.942Z,10.82
2023-01-22T11:06:51.309Z,13.98
2023-01-22T11:12:05.551Z,7.85
2023-01-22T11:17:18.886Z,10.38
2023-01-22T11:22:29.519Z,8.90
2023-01-22T11:27:53.849Z,13.32
2023-01-22T11:33:06.209Z,18.20
2023-01-22T11:38:25.069Z,13.23
2023-01-22T11:43:40.097Z,9.82
2023-01-22T11:49:00.293Z,9.32
2023-01-22T11:54:23.420Z,10.40
2023-01-22T11:59:39.961Z,11.73
2023-01-22T12:05:03.753Z,10.38
2023-01-22T12:10:34.231Z,12.07
2023-01-22T12:15:45.120Z,8.57
2023-01-22T12:21:08.075Z,8.15
2023-01-22T12:26:16.903Z,7.22
2023-01-22T12:31:25.650Z,10.48
2023-01-22T12:36:32.327Z,9.52
2023-01-22T12:46:55.545Z,9.15
2023-01-22T12:52:01.252Z,12.65
2023-01-22T12:57:23.767Z,9.07
2023-01-22T13:02:34.974Z,6.95
2023-01-22T13:07:41.302Z,8.30
2023-01-22T13:12:46.940Z,11.35
2023-01-22T13:18:06.113Z,13.30
2023-01-22T13:23:15.775Z,9.27
2023-01-22T13:28:19.716Z,8.82
2023-01-22T13:33:26.153Z,12.13
2023-01-22T13:38:32.652Z,12.35
2023-01-22T13:43:38.290Z,12.27
2023-01-22T13:48:42.133Z,10.18
2023-01-22T13:53:53.063Z,7.18
2023-01-22T13:59:19.848Z,12.35
2023-01-22T14:04:36.742Z,11.82
2023-01-22T14:09:42.042Z,10.65
2023-01-22T14:14:46.009Z,8.00
2023-01-22T14:19:49.708Z,9.15
2023-01-22T14:24:55.087Z,10.85
2023-01-22T14:29:58.710Z,6.78
2023-01-22T14:35:02.378Z,10.18
2023-01-22T14:40:09.791Z,11.63
2023-01-22T14:45:16.324Z,9.48
2023-01-22T14:50:21.131Z,8.73
2023-01-22T14:55:27.505Z,8.73
2023-01-22T15:00:31.446Z,9.18
2023-01-22T15:05:35.817Z,10.32
2023-01-22T15:10:41.177Z,8.52
2023-01-22T15:15:44.853Z,8.93
2023-01-22T15:20:48.506Z,10.98
2023-01-22T15:26:00.007Z,10.63
2023-01-22T15:31:04.408Z,7.53
2023-01-22T15:36:09.192Z,11.60
2023-01-22T15:41:23.693Z,13.00
2023-01-22T15:46:28.869Z,9.57
2023-01-22T15:51:32.929Z,6.90
2023-01-22T15:56:39.236Z,8.25
2023-01-22T16:01:42.983Z,11.57
2023-01-22T16:06:46.677Z,10.20
2023-01-22T16:11:51.960Z,9.52
2023-01-22T16:16:55.745Z,9.20
2023-01-22T16:21:59.434Z,9.32
2023-01-22T16:27:04.858Z,11.80
2023-01-22T16:32:09.266Z,8.27
2023-01-22T16:37:12.917Z,5.90
2023-01-22T16:42:19.177Z,7.97
2023-01-22T16:47:22.788Z,8.70
2023-01-22T16:52:27.103Z,4.85
2023-01-22T16:57:32.358Z,2.72
2023-01-22T17:02:36.047Z,4.18
2023-01-22T17:07:39.750Z,3.83
2023-01-22T17:12:45.005Z,1.90
2023-01-22T17:17:48.637Z,3.20
2023-01-22T17:22:52.264Z,1.67
2023-01-22T17:27:57.568Z,3.25
2023-01-22T17:33:01.174Z,3.85
2023-01-22T17:38:04.829Z,3.28
2023-01-22T17:43:10.128Z,2.95
2023-01-22T17:48:13.761Z,2.58
2023-01-22T17:53:17.404Z,1.95
2023-01-22T17:58:22.875Z,1.90
2023-01-22T18:03:26.530Z,3.97
2023-01-22T18:08:31.057Z,2.10
2023-01-22T18:13:36.746Z,2.92
2023-01-22T18:18:40.752Z,2.75
2023-01-22T18:23:45.010Z,2.13
2023-01-22T18:28:50.817Z,2.08
2023-01-22T18:33:55.909Z,3.88
2023-01-22T18:39:01.157Z,2.53
2023-01-22T18:44:08.825Z,3.30
2023-01-22T18:49:17.091Z,4.97
2023-01-22T18:54:20.908Z,2.40
2023-01-22T18:59:26.223Z,2.33
2023-01-22T19:04:29.843Z,4.00
2023-01-22T19:09:33.473Z,3.38
2023-01-22T19:14:38.793Z,2.90
2023-01-22T19:19:42.413Z,1.60
2023-01-22T19:24:46.138Z,1.50
2023-01-22T19:29:51.446Z,1.33
2023-01-22T19:34:55.199Z,1.40
2023-01-22T19:39:59.421Z,2.47
2023-01-22T19:45:05.182Z,1.77
2023-01-22T19:50:09.936Z,1.23
2023-01-22T19:55:13.598Z,1.15
2023-01-22T20:00:19.868Z,1.45
2023-01-22T20:05:23.480Z,1.75
2023-01-22T20:10:27.285Z,0.98
2023-01-22T20:15:37.127Z,1.10
2023-01-22T20:20:40.760Z,0.70
2023-01-22T20:25:44.377Z,3.13
2023-01-22T20:30:58.414Z,4.43
2023-01-22T20:36:03.524Z,1.23
2023-01-22T20:41:08.635Z,6.13
2023-01-22T20:46:15.737Z,4.90
2023-01-22T20:51:21.033Z,1.02
2023-01-22T20:56:27.671Z,1.48
2023-01-22T21:01:33.478Z,1.80
2023-01-22T21:11:41.927Z,1.77
2023-01-22T21:16:47.556Z,1.10
2023-01-22T21:21:51.607Z,2.22
2023-01-22T21:26:55.333Z,3.58
2023-01-22T21:32:00.676Z,1.98
2023-01-22T21:37:04.425Z,1.60
2023-01-22T21:42:08.037Z,3.42
2023-01-22T21:47:13.319Z,3.15
2023-01-22T21:52:17.189Z,1.58
2023-01-22T21:57:20.812Z,0.95
2023-01-22T22:02:26.103Z,2.33
2023-01-22T22:07:29.807Z,2.40
2023-01-22T22:12:33.460Z,1.92
2023-01-22T22:17:38.830Z,1.02
2023-01-22T22:22:42.474Z,2.50
2023-01-22T22:27:46.086Z,1.85
2023-01-22T22:32:51.498Z,2.47
2023-01-22T22:37:55.122Z,0.80
2023-01-22T22:42:58.766Z,1.27
2023-01-22T22:48:04.176Z,1.17
2023-01-22T22:53:07.834Z,1.40
2023-01-22T22:58:11.499Z,1.20
2023-01-22T23:03:16.797Z,2.47
2023-01-22T23:08:20.421Z,0.88
2023-01-22T23:13:24.045Z,0.70
2023-01-22T23:18:29.758Z,0.50
2023-01-22T23:23:33.664Z,1.55
2023-01-22T23:28:37.779Z,1.73
2023-01-22T23:33:44.230Z,1.13
2023-01-22T23:38:48.809Z,1.15
2023-01-22T23:43:52.474Z,1.45
2023-01-22T23:48:58.570Z,1.27
2023-01-22T23:54:02.245Z,0.65
2023-01-22T23:59:06.007Z,2.97
